Wind From: 10-12-2017 19:04 Until: 11-12-2017 16:00 warning for: Wind Level: Orange info button

Power and phone distribution networks may be disrupted for relatively long periods., Roofs and chimneys can be damaged. , Tree branches may break. , Vehicles can be deported. , Traffic may be disrupted, particularly on secondary roads in forest areas. Limit your trips. , Limit your speed in highway driving, especially if you drive a vehicle or hitch sensitive to wind. , Do not go for walks in forests or along the coast., In town, be vigilant against possible falling objects., Do not work on roofs and do not touch any electrical line fallen on the ground., Store or secure sensitive objects to wind or likely to be damaged., Always install power generators outside buildings. 


Meteo18 Weather Cam more information Meteo18 Weather Cam


Thunder radar more information blitzortung!


Rain radar more information rain snow radar


Visit our other weather sites:

Template documentation
and downloads

And another site



Weather Underground History page Text

Daily Summary for October 20, 2017 Units:  Both    English   Metric
« Previous Day
Next Day »
Daily Weekly Monthly Yearly Custom
  High: Low: Average:
Temperature: 62.2 °F /  16.8 °C 52.3 °F /  11.3 °C 57.2 °F /  14 °C
Dew Point: 55.6 °F /  13.1 °C 49.3 °F /  9.6 °C 52.3 °F /  11.3 °C
Humidity: 95 % 67 % 84 %
Wind Speed: 18 mph /  29.0 km/h - 4.7 mph /  7.6 km/h
Wind Gust: 26 mph /  41.8 km/h - -
Wind:- - SW
Pressure: 30.1 in /  1018.2 hPa 29.9 in /  1011.4 hPa -
Precipitation: 0.01 in /  0.3 mm    
Historical Graphs
 
 
Tabular Data for October 20, 2017
Time Temperature Dew Point Pressure Wind Wind Speed Wind Gust Humidity Rainfall Rate (Hourly)
00:02 61.3 °F /  16.3 °C 55.4 °F /  13.0 °C 29.9 in /  1011.7 hPa SSW 8 mph /  12.9 km/h 13 mph /  20.9 km/h 81 % 0 in /  0.0 mm
00:07 61.5 °F /  16.4 °C 55.6 °F /  13.1 °C 29.9 in /  1011.7 hPa SSW 12 mph /  19.3 km/h 13 mph /  20.9 km/h 81 % 0 in /  0.0 mm
00:12 61.9 °F /  16.6 °C 55.6 °F /  13.1 °C 29.9 in /  1011.7 hPa SSW 8 mph /  12.9 km/h 15 mph /  24.1 km/h 80 % 0 in /  0.0 mm
00:17 62.2 °F /  16.8 °C 55.6 °F /  13.1 °C 29.9 in /  1011.7 hPa SSW 8 mph /  12.9 km/h 15 mph /  24.1 km/h 79 % 0 in /  0.0 mm
00:22 62.2 °F /  16.8 °C 55.6 °F /  13.1 °C 29.9 in /  1011.7 hPa SSW 8 mph /  12.9 km/h 19 mph /  30.6 km/h 79 % 0 in /  0.0 mm
00:32 62.2 °F /  16.8 °C 55.6 °F /  13.1 °C 29.9 in /  1011.7 hPa SSW 7 mph /  11.3 km/h 19 mph /  30.6 km/h 79 % 0 in /  0.0 mm
00:42 62.2 °F /  16.8 °C 55.2 °F /  12.9 °C 29.9 in /  1011.7 hPa SW 17 mph /  27.4 km/h 20 mph /  32.2 km/h 78 % 0 in /  0.0 mm
00:47 62.2 °F /  16.8 °C 55.6 °F /  13.1 °C 29.9 in /  1011.4 hPa SSW 12 mph /  19.3 km/h 20 mph /  32.2 km/h 79 % 0 in /  0.0 mm
00:52 62.1 °F /  16.7 °C 55.4 °F /  13.0 °C 29.9 in /  1011.4 hPa SW 16 mph /  25.7 km/h 19 mph /  30.6 km/h 79 % 0 in /  0.0 mm
00:57 62.1 °F /  16.7 °C 55.4 °F /  13.0 °C 29.9 in /  1011.4 hPa SSW 11 mph /  17.7 km/h 19 mph /  30.6 km/h 79 % 0 in /  0.0 mm
01:02 61.9 °F /  16.6 °C 55.2 °F /  12.9 °C 29.9 in /  1011.4 hPa SSW 8 mph /  12.9 km/h 19 mph /  30.6 km/h 79 % 0 in /  0.0 mm
01:07 61.5 °F /  16.4 °C 54.9 °F /  12.7 °C 29.9 in /  1011.4 hPa SSW 7 mph /  11.3 km/h 19 mph /  30.6 km/h 79 % 0 in /  0.0 mm
01:12 61.3 °F /  16.3 °C 55 °F /  12.8 °C 29.9 in /  1011.4 hPa SSW 8 mph /  12.9 km/h 16 mph /  25.7 km/h 80 % 0 in /  0.0 mm
01:17 61.3 °F /  16.3 °C 55 °F /  12.8 °C 29.9 in /  1011.4 hPa SSW 6 mph /  9.7 km/h 16 mph /  25.7 km/h 80 % 0 in /  0.0 mm
01:22 61.3 °F /  16.3 °C 54.9 °F /  12.7 °C 29.9 in /  1011.4 hPa SW 9 mph /  14.5 km/h 16 mph /  25.7 km/h 79 % 0 in /  0.0 mm
01:27 61.2 °F /  16.2 °C 54.7 °F /  12.6 °C 29.9 in /  1011.4 hPa SSW 11 mph /  17.7 km/h 15 mph /  24.1 km/h 79 % 0 in /  0.0 mm
01:32 61 °F /  16.1 °C 54.5 °F /  12.5 °C 29.9 in /  1011.4 hPa SW 7 mph /  11.3 km/h 14 mph /  22.5 km/h 79 % 0 in /  0.0 mm
01:37 60.8 °F /  16.0 °C 54.7 °F /  12.6 °C 29.9 in /  1011.7 hPa SW 10 mph /  16.1 km/h 13 mph /  20.9 km/h 80 % 0 in /  0.0 mm
01:47 61 °F /  16.1 °C 54.5 °F /  12.5 °C 29.9 in /  1011.4 hPa South 11 mph /  17.7 km/h 15 mph /  24.1 km/h 79 % 0 in /  0.0 mm
01:52 61 °F /  16.1 °C 54.5 °F /  12.5 °C 29.9 in /  1011.4 hPa SSE 9 mph /  14.5 km/h 15 mph /  24.1 km/h 79 % 0 in /  0.0 mm
02:02 61 °F /  16.1 °C 54.5 °F /  12.5 °C 29.9 in /  1011.7 hPa SW 8 mph /  12.9 km/h 14 mph /  22.5 km/h 79 % 0 in /  0.0 mm
02:07 60.6 °F /  15.9 °C 54.5 °F /  12.5 °C 29.9 in /  1011.7 hPa SW 5 mph /  8.0 km/h 14 mph /  22.5 km/h 80 % 0 in /  0.0 mm
02:12 60.3 °F /  15.7 °C 54.3 °F /  12.4 °C 29.9 in /  1011.7 hPa WSW 7 mph /  11.3 km/h 14 mph /  22.5 km/h 81 % 0 in /  0.0 mm
02:17 60.3 °F /  15.7 °C 54.3 °F /  12.4 °C 29.9 in /  1011.7 hPa SW 7 mph /  11.3 km/h 13 mph /  20.9 km/h 81 % 0 in /  0.0 mm
02:22 59.9 °F /  15.5 °C 54.1 °F /  12.3 °C 29.9 in /  1012.1 hPa SW 9 mph /  14.5 km/h 13 mph /  20.9 km/h 81 % 0 in /  0.0 mm
02:32 59.5 °F /  15.3 °C 54 °F /  12.2 °C 29.9 in /  1012.1 hPa SW 6 mph /  9.7 km/h 14 mph /  22.5 km/h 82 % 0 in /  0.0 mm
02:37 59.4 °F /  15.2 °C 54.1 °F /  12.3 °C 29.9 in /  1012.1 hPa SW 7 mph /  11.3 km/h 14 mph /  22.5 km/h 83 % 0 in /  0.0 mm
02:42 58.8 °F /  14.9 °C 54 °F /  12.2 °C 29.9 in /  1012.1 hPa SW 9 mph /  14.5 km/h 13 mph /  20.9 km/h 84 % 0 in /  0.0 mm
02:52 58.3 °F /  14.6 °C 53.8 °F /  12.1 °C 29.9 in /  1012.1 hPa SSW 5 mph /  8.0 km/h 13 mph /  20.9 km/h 85 % 0 in /  0.0 mm
02:57 57.9 °F /  14.4 °C 53.4 °F /  11.9 °C 29.9 in /  1012.1 hPa SSW 7 mph /  11.3 km/h 13 mph /  20.9 km/h 85 % 0 in /  0.0 mm
03:02 57.7 °F /  14.3 °C 53.2 °F /  11.8 °C 29.9 in /  1012.1 hPa SW 5 mph /  8.0 km/h 12 mph /  19.3 km/h 85 % 0 in /  0.0 mm
03:07 57.4 °F /  14.1 °C 53.2 °F /  11.8 °C 29.9 in /  1012.4 hPa SW 3 mph /  4.8 km/h 10 mph /  16.1 km/h 86 % 0 in /  0.0 mm
03:12 57.4 °F /  14.1 °C 53.6 °F /  12.0 °C 29.9 in /  1012.4 hPa SW 5 mph /  8.0 km/h 9 mph /  14.5 km/h 87 % 0 in /  0.0 mm
03:17 57.2 °F /  14.0 °C 53.4 °F /  11.9 °C 29.9 in /  1012.8 hPa SW 6 mph /  9.7 km/h 9 mph /  14.5 km/h 87 % 0 in /  0.0 mm
03:22 56.8 °F /  13.8 °C 53.1 °F /  11.7 °C 29.9 in /  1012.4 hPa SSW 4 mph /  6.4 km/h 8 mph /  12.9 km/h 87 % 0 in /  0.0 mm
03:32 56.1 °F /  13.4 °C 52.7 °F /  11.5 °C 29.9 in /  1012.8 hPa SW 3 mph /  4.8 km/h 8 mph /  12.9 km/h 88 % 0 in /  0.0 mm
03:37 56.1 °F /  13.4 °C 52.7 °F /  11.5 °C 29.9 in /  1012.8 hPa SSW 4 mph /  6.4 km/h 6 mph /  9.7 km/h 88 % 0 in /  0.0 mm
03:42 55.9 °F /  13.3 °C 52.7 °F /  11.5 °C 29.9 in /  1012.8 hPa SW 4 mph /  6.4 km/h 8 mph /  12.9 km/h 89 % 0 in /  0.0 mm
03:47 55.8 °F /  13.2 °C 52.5 °F /  11.4 °C 29.9 in /  1012.8 hPa SW 3 mph /  4.8 km/h 8 mph /  12.9 km/h 89 % 0 in /  0.0 mm
03:52 55.4 °F /  13.0 °C 52.2 °F /  11.2 °C 29.9 in /  1012.8 hPa SW 4 mph /  6.4 km/h 8 mph /  12.9 km/h 89 % 0 in /  0.0 mm
03:57 55.4 °F /  13.0 °C 52.5 °F /  11.4 °C 29.9 in /  1012.8 hPa SW 4 mph /  6.4 km/h 6 mph /  9.7 km/h 90 % 0 in /  0.0 mm
04:02 55.4 °F /  13.0 °C 52.5 °F /  11.4 °C 29.9 in /  1012.8 hPa SW 3 mph /  4.8 km/h 6 mph /  9.7 km/h 90 % 0 in /  0.0 mm
04:07 55.4 °F /  13.0 °C 52.5 °F /  11.4 °C 29.9 in /  1012.8 hPa SW 6 mph /  9.7 km/h 6 mph /  9.7 km/h 90 % 0 in /  0.0 mm
04:12 55.4 °F /  13.0 °C 52.2 °F /  11.2 °C 29.9 in /  1012.8 hPa SSW 3 mph /  4.8 km/h 7 mph /  11.3 km/h 89 % 0 in /  0.0 mm
04:17 55.4 °F /  13.0 °C 52.5 °F /  11.4 °C 29.9 in /  1012.8 hPa SW 3 mph /  4.8 km/h 7 mph /  11.3 km/h 90 % 0 in /  0.0 mm
04:22 55.6 °F /  13.1 °C 52.7 °F /  11.5 °C 29.9 in /  1012.8 hPa SSW 3 mph /  4.8 km/h 7 mph /  11.3 km/h 90 % 0 in /  0.0 mm
04:27 55.2 °F /  12.9 °C 52.3 °F /  11.3 °C 29.9 in /  1012.8 hPa SW 3 mph /  4.8 km/h 6 mph /  9.7 km/h 90 % 0 in /  0.0 mm
04:32 54.9 °F /  12.7 °C 52 °F /  11.1 °C 29.9 in /  1012.8 hPa SW 3 mph /  4.8 km/h 5 mph /  8.0 km/h 90 % 0 in /  0.0 mm
04:42 55 °F /  12.8 °C 52.5 °F /  11.4 °C 29.9 in /  1013.1 hPa SW 4 mph /  6.4 km/h 6 mph /  9.7 km/h 91 % 0 in /  0.0 mm
04:47 55.2 °F /  12.9 °C 52.3 °F /  11.3 °C 29.9 in /  1012.8 hPa SSW 4 mph /  6.4 km/h 9 mph /  14.5 km/h 90 % 0 in /  0.0 mm
04:52 55.8 °F /  13.2 °C 52.5 °F /  11.4 °C 29.9 in /  1012.8 hPa SW 7 mph /  11.3 km/h 9 mph /  14.5 km/h 89 % 0 in /  0.0 mm
04:57 56.7 °F /  13.7 °C 53.1 °F /  11.7 °C 29.9 in /  1012.8 hPa SSW 7 mph /  11.3 km/h 9 mph /  14.5 km/h 88 % 0 in /  0.0 mm
05:02 58.6 °F /  14.8 °C 53.4 °F /  11.9 °C 29.9 in /  1013.1 hPa SW 12 mph /  19.3 km/h 12 mph /  19.3 km/h 83 % 0 in /  0.0 mm
05:07 59.9 °F /  15.5 °C 54.1 °F /  12.3 °C 29.9 in /  1012.8 hPa WSW 18 mph /  29.0 km/h 25 mph /  40.2 km/h 81 % 0 in /  0.0 mm
05:17 59.4 °F /  15.2 °C 54.1 °F /  12.3 °C 29.9 in /  1012.8 hPa SW 17 mph /  27.4 km/h 26 mph /  41.8 km/h 83 % 0 in /  0.0 mm
05:22 59.2 °F /  15.1 °C 54.3 °F /  12.4 °C 29.9 in /  1012.8 hPa SW 8 mph /  12.9 km/h 26 mph /  41.8 km/h 84 % 0 in /  0.0 mm
05:27 59.2 °F /  15.1 °C 54.3 °F /  12.4 °C 29.9 in /  1012.8 hPa SW 9 mph /  14.5 km/h 21 mph /  33.8 km/h 84 % 0 in /  0.0 mm
05:32 59 °F /  15.0 °C 54.1 °F /  12.3 °C 29.9 in /  1012.8 hPa SW 6 mph /  9.7 km/h 21 mph /  33.8 km/h 84 % 0 in /  0.0 mm
05:37 58.8 °F /  14.9 °C 54 °F /  12.2 °C 29.9 in /  1012.8 hPa SW 10 mph /  16.1 km/h 21 mph /  33.8 km/h 84 % 0 in /  0.0 mm
05:47 59 °F /  15.0 °C 54.1 °F /  12.3 °C 29.9 in /  1012.8 hPa SW 7 mph /  11.3 km/h 13 mph /  20.9 km/h 84 % 0 in /  0.0 mm
05:52 59.2 °F /  15.1 °C 54 °F /  12.2 °C 29.9 in /  1012.8 hPa SW 11 mph /  17.7 km/h 13 mph /  20.9 km/h 83 % 0 in /  0.0 mm
06:02 59.2 °F /  15.1 °C 54.3 °F /  12.4 °C 29.9 in /  1013.1 hPa SW 10 mph /  16.1 km/h 18 mph /  29.0 km/h 84 % 0 in /  0.0 mm
06:12 59 °F /  15.0 °C 54.5 °F /  12.5 °C 29.9 in /  1013.1 hPa West 12 mph /  19.3 km/h 18 mph /  29.0 km/h 85 % 0 in /  0.0 mm
06:17 58.6 °F /  14.8 °C 54.9 °F /  12.7 °C 29.9 in /  1013.1 hPa SW 3 mph /  4.8 km/h 22 mph /  35.4 km/h 87 % 0 in /  0.0 mm
06:22 58.3 °F /  14.6 °C 54.5 °F /  12.5 °C 29.9 in /  1013.4 hPa WSW 9 mph /  14.5 km/h 22 mph /  35.4 km/h 87 % 0 in /  0.0 mm
06:32 57.7 °F /  14.3 °C 54.5 °F /  12.5 °C 29.9 in /  1013.4 hPa WSW 13 mph /  20.9 km/h 16 mph /  25.7 km/h 89 % 0 in /  0.0 mm
06:42 57.4 °F /  14.1 °C 54.9 °F /  12.7 °C 29.9 in /  1013.4 hPa SSW 4 mph /  6.4 km/h 15 mph /  24.1 km/h 91 % 0 in /  0.0 mm
06:52 57 °F /  13.9 °C 54.7 °F /  12.6 °C 29.9 in /  1013.8 hPa SW 3 mph /  4.8 km/h 15 mph /  24.1 km/h 92 % 0 in /  0.0 mm
06:57 56.7 °F /  13.7 °C 54.7 °F /  12.6 °C 29.9 in /  1013.8 hPa West 6 mph /  9.7 km/h 16 mph /  25.7 km/h 93 % 0 in /  0.0 mm
07:02 55.9 °F /  13.3 °C 53.4 °F /  11.9 °C 29.9 in /  1014.1 hPa West 12 mph /  19.3 km/h 16 mph /  25.7 km/h 91 % 0 in /  0.0 mm
07:07 55 °F /  12.8 °C 52.5 °F /  11.4 °C 29.9 in /  1014.1 hPa NW 4 mph /  6.4 km/h 14 mph /  22.5 km/h 91 % 0 in /  0.0 mm
07:12 54.5 °F /  12.5 °C 52 °F /  11.1 °C 29.9 in /  1014.1 hPa West 8 mph /  12.9 km/h 14 mph /  22.5 km/h 91 % 0 in /  0.0 mm
07:17 54.1 °F /  12.3 °C 51.8 °F /  11.0 °C 29.9 in /  1014.1 hPa West 7 mph /  11.3 km/h 16 mph /  25.7 km/h 92 % 0.01 in /  0.3 mm
07:22 54 °F /  12.2 °C 51.6 °F /  10.9 °C 30 in /  1014.4 hPa West 5 mph /  8.0 km/h 16 mph /  25.7 km/h 92 % 0.01 in /  0.3 mm
07:32 53.6 °F /  12.0 °C 51.6 °F /  10.9 °C 30 in /  1014.4 hPa WNW 2 mph /  3.2 km/h 14 mph /  22.5 km/h 93 % 0.01 in /  0.3 mm
07:42 53.2 °F /  11.8 °C 51.3 °F /  10.7 °C 30 in /  1014.4 hPa WSW 4 mph /  6.4 km/h 10 mph /  16.1 km/h 93 % 0.01 in /  0.3 mm
07:52 53.1 °F /  11.7 °C 50.7 °F /  10.4 °C 30 in /  1014.4 hPa SW 4 mph /  6.4 km/h 10 mph /  16.1 km/h 92 % 0.01 in /  0.3 mm
08:02 52.9 °F /  11.6 °C 50.5 °F /  10.3 °C 30 in /  1014.8 hPa SW 2 mph /  3.2 km/h 10 mph /  16.1 km/h 92 % 0.01 in /  0.3 mm
08:12 52.9 °F /  11.6 °C 50.5 °F /  10.3 °C 30 in /  1015.1 hPa SW 4 mph /  6.4 km/h 9 mph /  14.5 km/h 92 % 0.01 in /  0.3 mm
08:17 52.9 °F /  11.6 °C 50.9 °F /  10.5 °C 30 in /  1015.1 hPa West 7 mph /  11.3 km/h 11 mph /  17.7 km/h 93 % 0 in /  0.0 mm
08:22 52.9 °F /  11.6 °C 50.9 °F /  10.5 °C 30 in /  1015.1 hPa WSW 3 mph /  4.8 km/h 11 mph /  17.7 km/h 93 % 0 in /  0.0 mm
08:32 52.9 °F /  11.6 °C 50.9 °F /  10.5 °C 30 in /  1015.5 hPa SSW 5 mph /  8.0 km/h 10 mph /  16.1 km/h 93 % 0 in /  0.0 mm
08:42 52.9 °F /  11.6 °C 50.9 °F /  10.5 °C 30 in /  1015.5 hPa SW 2 mph /  3.2 km/h 10 mph /  16.1 km/h 93 % 0 in /  0.0 mm
08:47 52.9 °F /  11.6 °C 50.9 °F /  10.5 °C 30 in /  1015.5 hPa SW 1 mph /  1.6 km/h 7 mph /  11.3 km/h 93 % 0 in /  0.0 mm
08:52 53.1 °F /  11.7 °C 51.1 °F /  10.6 °C 30 in /  1015.8 hPa West 1 mph /  1.6 km/h 7 mph /  11.3 km/h 93 % 0 in /  0.0 mm
09:02 53.1 °F /  11.7 °C 51.1 °F /  10.6 °C 30 in /  1015.8 hPa WSW 4 mph /  6.4 km/h 7 mph /  11.3 km/h 93 % 0 in /  0.0 mm
09:12 53.2 °F /  11.8 °C 51.3 °F /  10.7 °C 30 in /  1016.1 hPa WSW 2 mph /  3.2 km/h 6 mph /  9.7 km/h 93 % 0 in /  0.0 mm
09:17 53.2 °F /  11.8 °C 51.3 °F /  10.7 °C 30 in /  1016.1 hPa SW 3 mph /  4.8 km/h 6 mph /  9.7 km/h 93 % 0 in /  0.0 mm
09:22 53.4 °F /  11.9 °C 51.8 °F /  11.0 °C 30 in /  1016.5 hPa WSW 1 mph /  1.6 km/h 6 mph /  9.7 km/h 94 % 0 in /  0.0 mm
09:32 53.6 °F /  12.0 °C 52 °F /  11.1 °C 30 in /  1016.5 hPa SW 3 mph /  4.8 km/h 7 mph /  11.3 km/h 94 % 0 in /  0.0 mm
09:42 53.8 °F /  12.1 °C 52.2 °F /  11.2 °C 30 in /  1016.5 hPa WSW 2 mph /  3.2 km/h 5 mph /  8.0 km/h 94 % 0 in /  0.0 mm
09:52 54 °F /  12.2 °C 52 °F /  11.1 °C 30 in /  1016.8 hPa WSW 2 mph /  3.2 km/h 6 mph /  9.7 km/h 93 % 0 in /  0.0 mm
10:02 54.3 °F /  12.4 °C 52.3 °F /  11.3 °C 30 in /  1016.8 hPa WSW 2 mph /  3.2 km/h 6 mph /  9.7 km/h 93 % 0 in /  0.0 mm
10:12 54.5 °F /  12.5 °C 52.5 °F /  11.4 °C 30 in /  1016.8 hPa SW 3 mph /  4.8 km/h 6 mph /  9.7 km/h 93 % 0 in /  0.0 mm
10:17 54.7 °F /  12.6 °C 52.3 °F /  11.3 °C 30 in /  1017.2 hPa WSW 4 mph /  6.4 km/h 9 mph /  14.5 km/h 92 % 0 in /  0.0 mm
10:22 54.9 °F /  12.7 °C 52.5 °F /  11.4 °C 30 in /  1017.2 hPa WSW 3 mph /  4.8 km/h 9 mph /  14.5 km/h 92 % 0 in /  0.0 mm
10:32 55.4 °F /  13.0 °C 52.9 °F /  11.6 °C 30 in /  1017.2 hPa WSW 5 mph /  8.0 km/h 9 mph /  14.5 km/h 91 % 0 in /  0.0 mm
10:37 55.4 °F /  13.0 °C 52.5 °F /  11.4 °C 30 in /  1017.2 hPa WSW 5 mph /  8.0 km/h 6 mph /  9.7 km/h 90 % 0 in /  0.0 mm
10:42 55.6 °F /  13.1 °C 52.7 °F /  11.5 °C 30 in /  1017.2 hPa WSW 4 mph /  6.4 km/h 6 mph /  9.7 km/h 90 % 0 in /  0.0 mm
10:47 55.8 °F /  13.2 °C 52.9 °F /  11.6 °C 30.1 in /  1017.5 hPa WSW 3 mph /  4.8 km/h 7 mph /  11.3 km/h 90 % 0 in /  0.0 mm
10:52 55.8 °F /  13.2 °C 52.5 °F /  11.4 °C 30.1 in /  1017.5 hPa SSW 6 mph /  9.7 km/h 7 mph /  11.3 km/h 89 % 0 in /  0.0 mm
11:02 55.9 °F /  13.3 °C 52.7 °F /  11.5 °C 30.1 in /  1017.5 hPa WSW 3 mph /  4.8 km/h 8 mph /  12.9 km/h 89 % 0 in /  0.0 mm
11:12 56.1 °F /  13.4 °C 52.7 °F /  11.5 °C 30.1 in /  1017.5 hPa SW 2 mph /  3.2 km/h 8 mph /  12.9 km/h 88 % 0 in /  0.0 mm
11:17 56.7 °F /  13.7 °C 53.1 °F /  11.7 °C 30.1 in /  1017.5 hPa SSW 3 mph /  4.8 km/h 7 mph /  11.3 km/h 88 % 0 in /  0.0 mm
11:22 56.7 °F /  13.7 °C 51.8 °F /  11.0 °C 30.1 in /  1017.8 hPa WSW 5 mph /  8.0 km/h 7 mph /  11.3 km/h 84 % 0 in /  0.0 mm
11:32 56.7 °F /  13.7 °C 52.5 °F /  11.4 °C 30.1 in /  1017.8 hPa West 1 mph /  1.6 km/h 8 mph /  12.9 km/h 86 % 0 in /  0.0 mm
11:37 56.7 °F /  13.7 °C 51.8 °F /  11.0 °C 30.1 in /  1017.8 hPa WSW 7 mph /  11.3 km/h 10 mph /  16.1 km/h 84 % 0 in /  0.0 mm
11:42 56.7 °F /  13.7 °C 52.5 °F /  11.4 °C 30.1 in /  1017.8 hPa West 1 mph /  1.6 km/h 10 mph /  16.1 km/h 86 % 0 in /  0.0 mm
11:52 56.7 °F /  13.7 °C 51.6 °F /  10.9 °C 30.1 in /  1017.8 hPa West 3 mph /  4.8 km/h 10 mph /  16.1 km/h 83 % 0 in /  0.0 mm
12:02 56.7 °F /  13.7 °C 50.5 °F /  10.3 °C 30.1 in /  1017.8 hPa West 8 mph /  12.9 km/h 10 mph /  16.1 km/h 80 % 0 in /  0.0 mm
12:12 57 °F /  13.9 °C 51.6 °F /  10.9 °C 30.1 in /  1018.2 hPa West 3 mph /  4.8 km/h 12 mph /  19.3 km/h 82 % 0 in /  0.0 mm
12:17 57 °F /  13.9 °C 51.3 °F /  10.7 °C 30.1 in /  1018.2 hPa West 5 mph /  8.0 km/h 12 mph /  19.3 km/h 81 % 0 in /  0.0 mm
12:22 57 °F /  13.9 °C 51.3 °F /  10.7 °C 30.1 in /  1018.2 hPa West 3 mph /  4.8 km/h 12 mph /  19.3 km/h 81 % 0 in /  0.0 mm
12:32 57.6 °F /  14.2 °C 51.1 °F /  10.6 °C 30.1 in /  1018.2 hPa West 4 mph /  6.4 km/h 9 mph /  14.5 km/h 79 % 0 in /  0.0 mm
12:42 57.6 °F /  14.2 °C 51.1 °F /  10.6 °C 30.1 in /  1018.2 hPa SW 6 mph /  9.7 km/h 12 mph /  19.3 km/h 79 % 0 in /  0.0 mm
12:47 57.7 °F /  14.3 °C 51.3 °F /  10.7 °C 30.1 in /  1018.2 hPa SSW 6 mph /  9.7 km/h 12 mph /  19.3 km/h 79 % 0 in /  0.0 mm
12:52 57.7 °F /  14.3 °C 52 °F /  11.1 °C 30.1 in /  1018.2 hPa SW 8 mph /  12.9 km/h 12 mph /  19.3 km/h 81 % 0 in /  0.0 mm
13:02 57.9 °F /  14.4 °C 51.8 °F /  11.0 °C 30.1 in /  1017.8 hPa SSW 5 mph /  8.0 km/h 10 mph /  16.1 km/h 80 % 0 in /  0.0 mm
13:12 58.6 °F /  14.8 °C 52.2 °F /  11.2 °C 30.1 in /  1017.8 hPa WSW 5 mph /  8.0 km/h 11 mph /  17.7 km/h 79 % 0 in /  0.0 mm
13:22 58.6 °F /  14.8 °C 50.7 °F /  10.4 °C 30.1 in /  1017.8 hPa SW 6 mph /  9.7 km/h 11 mph /  17.7 km/h 75 % 0 in /  0.0 mm
13:32 58.8 °F /  14.9 °C 49.5 °F /  9.7 °C 30.1 in /  1017.8 hPa SW 7 mph /  11.3 km/h 12 mph /  19.3 km/h 71 % 0 in /  0.0 mm
13:42 59.5 °F /  15.3 °C 50.2 °F /  10.1 °C 30.1 in /  1017.8 hPa SW 6 mph /  9.7 km/h 14 mph /  22.5 km/h 71 % 0 in /  0.0 mm
13:52 59.5 °F /  15.3 °C 49.8 °F /  9.9 °C 30.1 in /  1017.8 hPa West 7 mph /  11.3 km/h 12 mph /  19.3 km/h 70 % 0 in /  0.0 mm
13:57 59.5 °F /  15.3 °C 49.3 °F /  9.6 °C 30.1 in /  1017.8 hPa SW 4 mph /  6.4 km/h 13 mph /  20.9 km/h 69 % 0 in /  0.0 mm
14:02 59.5 °F /  15.3 °C 50.2 °F /  10.1 °C 30.1 in /  1017.8 hPa SSW 4 mph /  6.4 km/h 13 mph /  20.9 km/h 71 % 0 in /  0.0 mm
14:12 60.3 °F /  15.7 °C 50.4 °F /  10.2 °C 30.1 in /  1017.8 hPa WSW 8 mph /  12.9 km/h 13 mph /  20.9 km/h 70 % 0 in /  0.0 mm
14:17 60.1 °F /  15.6 °C 49.5 °F /  9.7 °C 30.1 in /  1017.5 hPa WSW 7 mph /  11.3 km/h 13 mph /  20.9 km/h 68 % 0 in /  0.0 mm
14:22 60.1 °F /  15.6 °C 49.8 °F /  9.9 °C 30.1 in /  1017.5 hPa SW 6 mph /  9.7 km/h 17 mph /  27.4 km/h 69 % 0 in /  0.0 mm
14:32 60.4 °F /  15.8 °C 49.5 °F /  9.7 °C 30.1 in /  1017.5 hPa SW 10 mph /  16.1 km/h 17 mph /  27.4 km/h 67 % 0 in /  0.0 mm
14:37 60.6 °F /  15.9 °C 50 °F /  10.0 °C 30.1 in /  1017.5 hPa West 8 mph /  12.9 km/h 12 mph /  19.3 km/h 68 % 0 in /  0.0 mm
14:47 60.6 °F /  15.9 °C 50.4 °F /  10.2 °C 30.1 in /  1017.5 hPa SW 6 mph /  9.7 km/h 15 mph /  24.1 km/h 69 % 0 in /  0.0 mm
14:52 60.8 °F /  16.0 °C 49.8 °F /  9.9 °C 30.1 in /  1017.5 hPa SW 7 mph /  11.3 km/h 15 mph /  24.1 km/h 67 % 0 in /  0.0 mm
14:57 60.6 °F /  15.9 °C 50 °F /  10.0 °C 30 in /  1017.2 hPa WSW 7 mph /  11.3 km/h 14 mph /  22.5 km/h 68 % 0 in /  0.0 mm
15:02 60.6 °F /  15.9 °C 50 °F /  10.0 °C 30 in /  1017.2 hPa West 3 mph /  4.8 km/h 14 mph /  22.5 km/h 68 % 0 in /  0.0 mm
15:07 61 °F /  16.1 °C 50.4 °F /  10.2 °C 30 in /  1017.2 hPa WSW 5 mph /  8.0 km/h 14 mph /  22.5 km/h 68 % 0 in /  0.0 mm
15:17 61.3 °F /  16.3 °C 50.7 °F /  10.4 °C 30 in /  1017.2 hPa SW 7 mph /  11.3 km/h 12 mph /  19.3 km/h 68 % 0 in /  0.0 mm
15:22 61.3 °F /  16.3 °C 50.4 °F /  10.2 °C 30 in /  1017.2 hPa SW 6 mph /  9.7 km/h 17 mph /  27.4 km/h 67 % 0 in /  0.0 mm
15:27 61.3 °F /  16.3 °C 50.7 °F /  10.4 °C 30 in /  1017.2 hPa WSW 7 mph /  11.3 km/h 17 mph /  27.4 km/h 68 % 0 in /  0.0 mm
15:32 61.2 °F /  16.2 °C 50.5 °F /  10.3 °C 30 in /  1017.2 hPa SW 6 mph /  9.7 km/h 17 mph /  27.4 km/h 68 % 0 in /  0.0 mm
15:37 61.2 °F /  16.2 °C 50.9 °F /  10.5 °C 30 in /  1017.2 hPa SSW 5 mph /  8.0 km/h 15 mph /  24.1 km/h 69 % 0 in /  0.0 mm
15:42 61 °F /  16.1 °C 51.1 °F /  10.6 °C 30 in /  1017.2 hPa WSW 4 mph /  6.4 km/h 13 mph /  20.9 km/h 70 % 0 in /  0.0 mm
15:47 60.8 °F /  16.0 °C 51.3 °F /  10.7 °C 30 in /  1017.2 hPa SW 6 mph /  9.7 km/h 13 mph /  20.9 km/h 71 % 0 in /  0.0 mm
15:52 60.8 °F /  16.0 °C 51.8 °F /  11.0 °C 30 in /  1017.2 hPa SSW 8 mph /  12.9 km/h 12 mph /  19.3 km/h 72 % 0 in /  0.0 mm
15:57 60.8 °F /  16.0 °C 51.8 °F /  11.0 °C 30 in /  1017.2 hPa SSW 6 mph /  9.7 km/h 11 mph /  17.7 km/h 72 % 0 in /  0.0 mm
16:02 60.8 °F /  16.0 °C 52.2 °F /  11.2 °C 30 in /  1017.2 hPa SW 6 mph /  9.7 km/h 11 mph /  17.7 km/h 73 % 0 in /  0.0 mm
16:12 60.8 °F /  16.0 °C 52.2 °F /  11.2 °C 30 in /  1017.2 hPa SSW 7 mph /  11.3 km/h 12 mph /  19.3 km/h 73 % 0 in /  0.0 mm
16:17 60.8 °F /  16.0 °C 52.5 °F /  11.4 °C 30 in /  1017.2 hPa SSW 3 mph /  4.8 km/h 12 mph /  19.3 km/h 74 % 0 in /  0.0 mm
16:22 61 °F /  16.1 °C 52.7 °F /  11.5 °C 30 in /  1017.2 hPa SSW 4 mph /  6.4 km/h 12 mph /  19.3 km/h 74 % 0 in /  0.0 mm
16:32 60.6 °F /  15.9 °C 52.7 °F /  11.5 °C 30 in /  1017.2 hPa SSW 6 mph /  9.7 km/h 13 mph /  20.9 km/h 75 % 0 in /  0.0 mm
16:37 61 °F /  16.1 °C 53.4 °F /  11.9 °C 30 in /  1017.2 hPa SSW 5 mph /  8.0 km/h 13 mph /  20.9 km/h 76 % 0 in /  0.0 mm
16:42 61 °F /  16.1 °C 53.1 °F /  11.7 °C 30 in /  1017.2 hPa SW 5 mph /  8.0 km/h 10 mph /  16.1 km/h 75 % 0 in /  0.0 mm
16:47 60.4 °F /  15.8 °C 52.9 °F /  11.6 °C 30 in /  1017.2 hPa South 5 mph /  8.0 km/h 11 mph /  17.7 km/h 76 % 0 in /  0.0 mm
16:57 60.3 °F /  15.7 °C 53.1 °F /  11.7 °C 30.1 in /  1017.5 hPa SW 9 mph /  14.5 km/h 11 mph /  17.7 km/h 77 % 0 in /  0.0 mm
17:12 61.2 °F /  16.2 °C 54 °F /  12.2 °C 30 in /  1017.2 hPa South 9 mph /  14.5 km/h 11 mph /  17.7 km/h 77 % 0 in /  0.0 mm
17:17 61 °F /  16.1 °C 53.1 °F /  11.7 °C 30 in /  1017.2 hPa SSW 10 mph /  16.1 km/h 11 mph /  17.7 km/h 75 % 0 in /  0.0 mm
17:22 60.8 °F /  16.0 °C 53.6 °F /  12.0 °C 30 in /  1017.2 hPa SW 5 mph /  8.0 km/h 11 mph /  17.7 km/h 77 % 0 in /  0.0 mm
17:27 61 °F /  16.1 °C 53.4 °F /  11.9 °C 30 in /  1017.2 hPa SW 4 mph /  6.4 km/h 11 mph /  17.7 km/h 76 % 0 in /  0.0 mm
17:32 61.2 °F /  16.2 °C 53.2 °F /  11.8 °C 30 in /  1017.2 hPa SSW 5 mph /  8.0 km/h 11 mph /  17.7 km/h 75 % 0 in /  0.0 mm
17:42 61.2 °F /  16.2 °C 53.6 °F /  12.0 °C 30 in /  1017.2 hPa SSW 4 mph /  6.4 km/h 11 mph /  17.7 km/h 76 % 0 in /  0.0 mm
17:52 61.3 °F /  16.3 °C 53.8 °F /  12.1 °C 30 in /  1017.2 hPa Calm   9 mph /  14.5 km/h 76 % 0 in /  0.0 mm
17:57 61.3 °F /  16.3 °C 53.8 °F /  12.1 °C 30 in /  1017.2 hPa SW 7 mph /  11.3 km/h 9 mph /  14.5 km/h 76 % 0 in /  0.0 mm
18:02 61.2 °F /  16.2 °C 53.6 °F /  12.0 °C 30 in /  1017.2 hPa SW 4 mph /  6.4 km/h 9 mph /  14.5 km/h 76 % 0 in /  0.0 mm
18:07 61 °F /  16.1 °C 53.4 °F /  11.9 °C 30 in /  1017.2 hPa SW 5 mph /  8.0 km/h 10 mph /  16.1 km/h 76 % 0 in /  0.0 mm
18:12 60.8 °F /  16.0 °C 53.2 °F /  11.8 °C 30 in /  1017.2 hPa SW 4 mph /  6.4 km/h 10 mph /  16.1 km/h 76 % 0 in /  0.0 mm
18:17 60.6 °F /  15.9 °C 53.1 °F /  11.7 °C 30 in /  1017.2 hPa SSW 5 mph /  8.0 km/h 10 mph /  16.1 km/h 76 % 0 in /  0.0 mm
18:22 60.4 °F /  15.8 °C 53.2 °F /  11.8 °C 30 in /  1017.2 hPa SW 4 mph /  6.4 km/h 9 mph /  14.5 km/h 77 % 0 in /  0.0 mm
18:27 60.3 °F /  15.7 °C 53.1 °F /  11.7 °C 30 in /  1017.2 hPa SSW 2 mph /  3.2 km/h 9 mph /  14.5 km/h 77 % 0 in /  0.0 mm
18:32 59.9 °F /  15.5 °C 53.1 °F /  11.7 °C 30 in /  1017.2 hPa SSW 2 mph /  3.2 km/h 8 mph /  12.9 km/h 78 % 0 in /  0.0 mm
18:42 59.2 °F /  15.1 °C 52.7 °F /  11.5 °C 30.1 in /  1017.5 hPa SSW 2 mph /  3.2 km/h 7 mph /  11.3 km/h 79 % 0 in /  0.0 mm
18:47 58.6 °F /  14.8 °C 52.5 °F /  11.4 °C 30.1 in /  1017.5 hPa SW 1 mph /  1.6 km/h 7 mph /  11.3 km/h 80 % 0 in /  0.0 mm
18:52 58.1 °F /  14.5 °C 52.3 °F /  11.3 °C 30.1 in /  1017.5 hPa SSW 2 mph /  3.2 km/h 7 mph /  11.3 km/h 81 % 0 in /  0.0 mm
18:57 57.7 °F /  14.3 °C 52.3 °F /  11.3 °C 30.1 in /  1017.5 hPa South 2 mph /  3.2 km/h 5 mph /  8.0 km/h 82 % 0 in /  0.0 mm
19:02 57.4 °F /  14.1 °C 52.3 °F /  11.3 °C 30.1 in /  1017.5 hPa SSW 2 mph /  3.2 km/h 5 mph /  8.0 km/h 83 % 0 in /  0.0 mm
19:07 57 °F /  13.9 °C 52 °F /  11.1 °C 30.1 in /  1017.5 hPa SSW 2 mph /  3.2 km/h 5 mph /  8.0 km/h 83 % 0 in /  0.0 mm
19:12 56.7 °F /  13.7 °C 51.8 °F /  11.0 °C 30.1 in /  1017.5 hPa SSW 2 mph /  3.2 km/h 4 mph /  6.4 km/h 84 % 0 in /  0.0 mm
19:17 56.1 °F /  13.4 °C 51.6 °F /  10.9 °C 30.1 in /  1017.5 hPa South 1 mph /  1.6 km/h 4 mph /  6.4 km/h 85 % 0 in /  0.0 mm
19:22 55.9 °F /  13.3 °C 51.4 °F /  10.8 °C 30.1 in /  1017.5 hPa SSW 1 mph /  1.6 km/h 3 mph /  4.8 km/h 85 % 0 in /  0.0 mm
19:32 55.6 °F /  13.1 °C 51.4 °F /  10.8 °C 30.1 in /  1017.5 hPa SW 1 mph /  1.6 km/h 3 mph /  4.8 km/h 86 % 0 in /  0.0 mm
19:42 55.2 °F /  12.9 °C 51.4 °F /  10.8 °C 30.1 in /  1017.5 hPa Calm   2 mph /  3.2 km/h 87 % 0 in /  0.0 mm
19:52 54.9 °F /  12.7 °C 51.1 °F /  10.6 °C 30.1 in /  1017.5 hPa Calm   1 mph /  1.6 km/h 87 % 0 in /  0.0 mm
20:02 54.3 °F /  12.4 °C 50.9 °F /  10.5 °C 30.1 in /  1017.5 hPa Calm   1 mph /  1.6 km/h 88 % 0 in /  0.0 mm
20:12 54.1 °F /  12.3 °C 50.9 °F /  10.5 °C 30.1 in /  1017.5 hPa SSW 2 mph /  3.2 km/h 2 mph /  3.2 km/h 89 % 0 in /  0.0 mm
20:22 54.1 °F /  12.3 °C 51.3 °F /  10.7 °C 30.1 in /  1017.5 hPa South 1 mph /  1.6 km/h 2 mph /  3.2 km/h 90 % 0 in /  0.0 mm
20:32 53.8 °F /  12.1 °C 50.9 °F /  10.5 °C 30.1 in /  1017.5 hPa SW 2 mph /  3.2 km/h 2 mph /  3.2 km/h 90 % 0 in /  0.0 mm
20:37 53.8 °F /  12.1 °C 51.3 °F /  10.7 °C 30.1 in /  1017.5 hPa SSW 1 mph /  1.6 km/h 2 mph /  3.2 km/h 91 % 0 in /  0.0 mm
20:47 53.6 °F /  12.0 °C 51.1 °F /  10.6 °C 30.1 in /  1017.5 hPa SSW 1 mph /  1.6 km/h 2 mph /  3.2 km/h 91 % 0 in /  0.0 mm
20:57 53.4 °F /  11.9 °C 50.9 °F /  10.5 °C 30.1 in /  1017.5 hPa Calm   2 mph /  3.2 km/h 91 % 0 in /  0.0 mm
21:02 53.4 °F /  11.9 °C 51.1 °F /  10.6 °C 30.1 in /  1017.5 hPa Calm   2 mph /  3.2 km/h 92 % 0 in /  0.0 mm
21:07 53.2 °F /  11.8 °C 50.9 °F /  10.5 °C 30.1 in /  1017.5 hPa Calm   1 mph /  1.6 km/h 92 % 0 in /  0.0 mm
21:12 53.2 °F /  11.8 °C 50.9 °F /  10.5 °C 30.1 in /  1017.5 hPa Calm   1 mph /  1.6 km/h 92 % 0 in /  0.0 mm
21:17 53.2 °F /  11.8 °C 50.9 °F /  10.5 °C 30.1 in /  1017.5 hPa Calm   1 mph /  1.6 km/h 92 % 0 in /  0.0 mm
21:22 53.2 °F /  11.8 °C 50.9 °F /  10.5 °C 30.1 in /  1017.5 hPa SW 1 mph /  1.6 km/h 1 mph /  1.6 km/h 92 % 0 in /  0.0 mm
21:27 53.1 °F /  11.7 °C 50.7 °F /  10.4 °C 30.1 in /  1017.5 hPa WSW 1 mph /  1.6 km/h 1 mph /  1.6 km/h 92 % 0 in /  0.0 mm
21:32 52.9 °F /  11.6 °C 50.9 °F /  10.5 °C 30.1 in /  1017.5 hPa Calm   1 mph /  1.6 km/h 93 % 0 in /  0.0 mm
21:37 52.9 °F /  11.6 °C 50.9 °F /  10.5 °C 30.1 in /  1017.5 hPa SW 1 mph /  1.6 km/h 2 mph /  3.2 km/h 93 % 0 in /  0.0 mm
21:42 53.1 °F /  11.7 °C 51.1 °F /  10.6 °C 30.1 in /  1017.5 hPa South 1 mph /  1.6 km/h 4 mph /  6.4 km/h 93 % 0 in /  0.0 mm
21:47 53.1 °F /  11.7 °C 51.1 °F /  10.6 °C 30.1 in /  1017.5 hPa SW 4 mph /  6.4 km/h 4 mph /  6.4 km/h 93 % 0 in /  0.0 mm
21:52 52.9 °F /  11.6 °C 50.9 °F /  10.5 °C 30.1 in /  1017.5 hPa Calm   4 mph /  6.4 km/h 93 % 0 in /  0.0 mm
21:57 52.9 °F /  11.6 °C 50.9 °F /  10.5 °C 30.1 in /  1017.5 hPa SW 1 mph /  1.6 km/h 4 mph /  6.4 km/h 93 % 0 in /  0.0 mm
22:02 52.9 °F /  11.6 °C 50.9 °F /  10.5 °C 30.1 in /  1017.5 hPa Calm   4 mph /  6.4 km/h 93 % 0 in /  0.0 mm
22:12 52.9 °F /  11.6 °C 50.9 °F /  10.5 °C 30.1 in /  1017.5 hPa Calm   2 mph /  3.2 km/h 93 % 0 in /  0.0 mm
22:22 52.9 °F /  11.6 °C 50.9 °F /  10.5 °C 30.1 in /  1017.5 hPa Calm   2 mph /  3.2 km/h 93 % 0 in /  0.0 mm
22:32 53.1 °F /  11.7 °C 51.4 °F /  10.8 °C 30.1 in /  1017.5 hPa South 2 mph /  3.2 km/h 2 mph /  3.2 km/h 94 % 0 in /  0.0 mm
22:42 53.1 °F /  11.7 °C 51.1 °F /  10.6 °C 30.1 in /  1017.5 hPa SSW 1 mph /  1.6 km/h 2 mph /  3.2 km/h 93 % 0 in /  0.0 mm
22:47 53.1 °F /  11.7 °C 51.4 °F /  10.8 °C 30.1 in /  1017.5 hPa Calm   2 mph /  3.2 km/h 94 % 0 in /  0.0 mm
22:52 53.1 °F /  11.7 °C 51.4 °F /  10.8 °C 30.1 in /  1017.5 hPa Calm   2 mph /  3.2 km/h 94 % 0 in /  0.0 mm
23:02 53.1 °F /  11.7 °C 51.4 °F /  10.8 °C 30.1 in /  1017.5 hPa Calm   2 mph /  3.2 km/h 94 % 0 in /  0.0 mm
23:07 52.9 °F /  11.6 °C 50.9 °F /  10.5 °C 30.1 in /  1017.5 hPa Calm   1 mph /  1.6 km/h 93 % 0 in /  0.0 mm
23:12 52.7 °F /  11.5 °C 51.1 °F /  10.6 °C 30.1 in /  1017.5 hPa Calm   1 mph /  1.6 km/h 94 % 0 in /  0.0 mm
23:17 52.5 °F /  11.4 °C 50.5 °F /  10.3 °C 30.1 in /  1017.5 hPa Calm     93 % 0 in /  0.0 mm
23:22 52.3 °F /  11.3 °C 50.7 °F /  10.4 °C 30.1 in /  1017.5 hPa Calm     94 % 0 in /  0.0 mm
23:32 52.5 °F /  11.4 °C 50.9 °F /  10.5 °C 30.1 in /  1017.5 hPa Calm     94 % 0 in /  0.0 mm
23:37 52.7 °F /  11.5 °C 51.1 °F /  10.6 °C 30.1 in /  1017.5 hPa Calm     94 % 0 in /  0.0 mm
23:42 52.9 °F /  11.6 °C 51.4 °F /  10.8 °C 30.1 in /  1017.5 hPa Calm     95 % 0 in /  0.0 mm
23:47 52.9 °F /  11.6 °C 51.4 °F /  10.8 °C 30.1 in /  1017.5 hPa Calm     95 % 0 in /  0.0 mm
23:52 53.1 °F /  11.7 °C 51.6 °F /  10.9 °C 30.1 in /  1017.5 hPa Calm   1 mph /  1.6 km/h 95 % 0 in /  0.0 mm
23:57 53.4 °F /  11.9 °C 52 °F /  11.1 °C 30.1 in /  1017.5 hPa SW 1 mph /  1.6 km/h 1 mph /  1.6 km/h 95 % 0 in /  0.0 mm
Meteo18
Compliments of Weather Underground - 4 mb

Script developed by  Jim McMurry - jmcmurry@mwt.net Adapted for the template by  Wim van der Kuil - Leuven-Template.eu

You find our weather info also at:

European Weather Network

Weather Underground

Equipment we use:

Weather-station
Davis Vue

Weather-program
Meteohub

Weather-server
Raspberry PI 2 B+

Provider
1 and 1

Davis Vue

Meteohub

Raspberry PI 2 B+

1 and 1